Huvudsida
METAR-TAF:

METAR-TAF

Flygplatser :

Björneborgs flygplats

Björneborg, Finland

latitud: 61-28N, longitud: 021-48E, höjd: 13 m

Aktuellt väderrapport

Denna rapport gjordes för 5 minuter sedan, klockan 14:50 UTC
Vind 10 kt från nordväst
Temperatur 16°C
Fuktighet 68%
Tryck 1005 hPa
Sikt 10 km eller mer

METAR: EFPO 201450Z AUTO 31010KT 9999 FEW064/// SCT081/// 16/10 Q1005

Tid: 17:55 (14:55 UTC)

Väderprognos

Denna rapport gjordes för 3 timmar och 24 minuter sedan, klockan 11:31 UTC
Prognos gäller från 20 kl. 12 UTC till 20 kl. 14 UTC
Vind 9 kt från nord/nordväst
Sikt 10 km eller mer
Spridda moln på en höjd av 4000 ft
Brutna moln på en höjd av 7000 ft
Sannolikhet 30% :
Temporärt
från 20 kl. 12 UTC till 20 kl. 14 UTC
Sikt: 4000 m
Spridda moln på en höjd av 4000 ft, Cumulonimbus.
åska, regn

TAF: EFPO 201131Z 2012/2014 34009KT 9999 SCT040 BKN070 PROB30 TEMPO 2012/2014 4000 TSRA SCT040CB

Aktuella väderrapporter och prognoser från 4000 flygplatser (METAR- och TAF-rapporter).

De tillgängliga stationerna syns som gula och röda prickar på kartan.

För musen över prickarna för att se namnen på stationerna.

Klicka sedan för att få väderrapporter och prognoser.

För att ändra kartan: Klicka på de gröna knapparna med ett svart kors på för att zooma in; den gröna knappen med ett streck på för att zooma ut; eller på de gröna pilarna för angränsande kartor.


METAR-TAF: